Time;durP1;ratioP1;P1;durP2;ratioP2;P2;SDS_P1;SDS_P2;PMS_P1;PMS_P2;Temp;Humidity;BMP_temperature;BMP_pressure;BME280_temperature;BME280_humidity;BME280_pressure;Samples;Min_cycle;Max_cycle;Signal;HPM_P1;HPM_P2
2023/04/28 00:00:08;;;;;;;0.10;0.10;;;;;;;3.77;62.63;101177.75;4968289;28;20046;-71
2023/04/28 00:02:35;;;;;;;2.17;0.00;;;;;;;3.76;62.47;101183.78;4964900;28;20495;-71
2023/04/28 00:05:02;;;;;;;0.77;0.10;;;;;;;3.74;62.18;101176.84;4967115;28;20062;-71
2023/04/28 00:07:30;;;;;;;0.20;0.05;;;;;;;3.73;62.01;101182.81;4963410;28;20051;-71
2023/04/28 00:09:57;;;;;;;2.00;0.10;;;;;;;3.72;62.56;101186.25;4967894;28;20502;-71
2023/04/28 00:12:24;;;;;;;0.30;0.10;;;;;;;3.71;62.92;101187.13;4965517;28;20047;-71
2023/04/28 00:14:51;;;;;;;0.40;0.10;;;;;;;3.69;62.39;101192.25;4969263;28;20081;-71
2023/04/28 00:17:18;;;;;;;0.57;0.10;;;;;;;3.68;62.42;101185.34;4966293;28;20050;-71
2023/04/28 00:19:45;;;;;;;0.10;0.10;;;;;;;3.67;62.91;101191.38;4966842;28;20058;-71
2023/04/28 00:22:11;;;;;;;0.00;0.00;;;;;;;3.67;62.93;101193.97;4966473;28;20055;-71
2023/04/28 00:24:40;;;;;;;0.40;0.03;;;;;;;3.66;62.88;101191.34;4967010;28;20058;-70
2023/04/28 00:27:07;;;;;;;4.15;0.17;;;;;;;3.64;62.63;101191.28;4965493;28;20482;-70
2023/04/28 00:29:34;;;;;;;0.10;0.10;;;;;;;3.63;62.94;101196.47;4966298;28;20046;-71
2023/04/28 00:32:01;;;;;;;0.17;0.08;;;;;;;3.62;62.58;101190.44;4966365;28;20134;-71
2023/04/28 00:34:28;;;;;;;1.95;0.00;;;;;;;3.59;62.64;101191.25;4962660;28;20050;-71
2023/04/28 00:36:55;;;;;;;1.65;0.10;;;;;;;3.60;63.10;101192.09;4964553;28;20042;-71
2023/04/28 00:39:22;;;;;;;0.10;0.10;;;;;;;3.58;63.12;101197.22;4965534;28;20043;-70
2023/04/28 00:41:50;;;;;;;0.13;0.10;;;;;;;3.58;63.07;101201.53;4965877;28;20050;-71
2023/04/28 00:44:17;;;;;;;0.55;0.10;;;;;;;3.57;62.88;101204.97;4968386;28;20054;-70
2023/04/28 00:46:44;;;;;;;0.20;0.05;;;;;;;3.55;62.77;101204.06;4966139;28;20058;-71
2023/04/28 00:49:12;;;;;;;0.10;0.10;;;;;;;3.53;63.16;101209.22;4968335;28;20142;-70
2023/04/28 00:51:39;;;;;;;0.50;0.10;;;;;;;3.53;62.94;101203.16;4963234;28;20053;-70
2023/04/28 00:54:07;;;;;;;1.00;0.10;;;;;;;3.51;63.18;101205.75;4965152;28;20053;-70
2023/04/28 00:56:34;;;;;;;0.17;0.10;;;;;;;3.51;62.81;101207.47;4966225;28;20069;-70
2023/04/28 00:59:02;;;;;;;0.10;0.00;;;;;;;3.50;63.40;101208.28;4965649;28;20061;-70
2023/04/28 01:01:29;;;;;;;0.43;0.10;;;;;;;3.48;63.50;101215.16;4966242;28;20071;-70
2023/04/28 01:03:56;;;;;;;0.10;0.05;;;;;;;3.47;63.00;101210.81;4967523;28;20639;-70
2023/04/28 01:06:23;;;;;;;0.10;0.08;;;;;;;3.47;63.13;101213.41;4964962;28;20043;-71
2023/04/28 01:08:50;;;;;;;0.10;0.05;;;;;;;3.44;63.32;101208.19;4965857;28;20047;-70
2023/04/28 01:11:17;;;;;;;0.10;0.10;;;;;;;3.43;63.58;101209.03;4966998;28;20046;-70
2023/04/28 01:13:44;;;;;;;0.13;0.03;;;;;;;3.40;63.37;101214.16;4964502;28;20701;-70
2023/04/28 01:16:12;;;;;;;1.13;0.03;;;;;;;3.39;63.60;101210.69;4968429;28;20051;-70
2023/04/28 01:18:46;;;;;;;0.10;0.00;;;;;;;3.38;63.74;101207.22;4960538;28;20051;-69
2023/04/28 01:21:13;;;;;;;0.08;0.08;;;;;;;3.37;63.00;101214.94;4966247;28;20050;-71
2023/04/28 01:23:40;;;;;;;0.10;0.00;;;;;;;3.35;63.80;101212.31;4966463;28;20872;-70
2023/04/28 01:26:08;;;;;;;0.10;0.00;;;;;;;3.33;63.76;101214.03;4966024;28;20057;-70
2023/04/28 01:28:35;;;;;;;1.15;0.00;;;;;;;3.33;63.37;101215.72;4967832;28;20054;-70
2023/04/28 01:31:02;;;;;;;2.40;0.00;;;;;;;3.32;63.92;101216.56;4965579;28;20044;-70
2023/04/28 01:33:29;;;;;;;0.10;0.00;;;;;;;3.30;63.09;101218.25;4960375;28;20043;-70
2023/04/28 01:35:57;;;;;;;0.10;0.00;;;;;;;3.27;63.83;101208.78;4964586;28;20051;-70
2023/04/28 01:38:24;;;;;;;1.48;0.00;;;;;;;3.26;63.66;101219.06;4962732;28;20039;-70
2023/04/28 01:40:51;;;;;;;0.70;0.10;;;;;;;3.25;63.63;101218.19;4966848;28;20411;-70
2023/04/28 01:43:20;;;;;;;0.20;0.00;;;;;;;3.24;63.98;101221.59;4962583;28;20487;-69
2023/04/28 01:45:46;;;;;;;0.75;0.00;;;;;;;3.23;63.56;101227.59;4966314;28;20458;-70
2023/04/28 01:48:13;;;;;;;0.28;0.00;;;;;;;3.22;63.85;101215.56;4967779;28;20046;-70
2023/04/28 01:50:40;;;;;;;0.10;0.10;;;;;;;3.20;63.60;101222.38;4960461;28;21128;-70
2023/04/28 01:53:07;;;;;;;0.17;0.05;;;;;;;3.19;64.05;101220.66;4968297;28;20043;-70
2023/04/28 01:55:34;;;;;;;0.20;0.00;;;;;;;3.18;63.30;101226.66;4968441;28;20059;-70
2023/04/28 01:58:01;;;;;;;0.10;0.00;;;;;;;3.16;63.70;101225.78;4967282;28;20407;-70
2023/04/28 02:00:29;;;;;;;0.65;0.00;;;;;;;3.15;63.64;101229.16;4970641;28;20058;-69
2023/04/28 02:02:56;;;;;;;4.88;0.10;;;;;;;3.12;63.52;101221.38;4968971;28;20414;-70
2023/04/28 02:05:23;;;;;;;0.13;0.10;;;;;;;3.10;63.77;101223.03;4969235;28;20058;-70
2023/04/28 02:07:50;;;;;;;1.17;0.00;;;;;;;3.08;63.46;101219.59;4968041;28;20047;-70
2023/04/28 02:10:17;;;;;;;3.50;0.00;;;;;;;3.07;63.79;101225.56;4970574;28;20047;-70
2023/04/28 02:12:43;;;;;;;0.40;0.10;;;;;;;3.06;63.52;101223.84;4967427;28;20059;-70
2023/04/28 02:15:11;;;;;;;0.20;0.10;;;;;;;3.05;64.02;101222.09;4970109;28;20051;-70
2023/04/28 02:17:39;;;;;;;0.28;0.00;;;;;;;3.02;63.50;101217.75;4969011;28;20055;-70
2023/04/28 02:20:07;;;;;;;0.00;0.00;;;;;;;2.99;64.05;101217.69;4968602;28;20491;-69
2023/04/28 02:22:34;;;;;;;0.40;0.10;;;;;;;2.98;63.89;101231.41;4968284;28;20051;-69
2023/04/28 02:25:01;;;;;;;0.30;0.10;;;;;;;2.98;63.60;101226.25;4967543;28;20054;-70
2023/04/28 02:27:27;;;;;;;0.10;0.00;;;;;;;2.97;63.91;101228.81;4969393;28;20053;-70
2023/04/28 02:29:54;;;;;;;0.05;0.00;;;;;;;2.95;64.13;101225.34;4969160;28;20054;-70
2023/04/28 02:32:21;;;;;;;0.10;0.00;;;;;;;2.93;63.78;101231.34;4967558;28;20434;-70
2023/04/28 02:34:54;;;;;;;2.13;0.00;;;;;;;2.92;64.26;101237.31;4968358;28;20051;-71
2023/04/28 02:37:21;;;;;;;0.10;0.00;;;;;;;2.91;63.96;101234.75;4968294;28;20101;-70
2023/04/28 02:39:48;;;;;;;0.10;0.08;;;;;;;2.89;64.01;101232.09;4968890;28;20050;-70
2023/04/28 02:42:15;;;;;;;0.10;0.05;;;;;;;2.88;64.26;101240.69;4968116;28;20422;-71
2023/04/28 02:44:41;;;;;;;0.40;0.10;;;;;;;2.87;64.26;101235.50;4969432;28;20109;-70
2023/04/28 02:47:08;;;;;;;0.28;0.10;;;;;;;2.85;64.11;101235.47;4967230;28;20073;-70
2023/04/28 02:49:35;;;;;;;0.43;0.10;;;;;;;2.86;63.86;101244.09;4968931;28;20046;-70
2023/04/28 02:52:03;;;;;;;0.03;0.00;;;;;;;2.83;64.03;101239.72;4967265;28;20051;-70
2023/04/28 02:54:32;;;;;;;0.70;0.20;;;;;;;2.77;64.34;101231.00;4967436;28;21301;-70
2023/04/28 02:57:00;;;;;;;0.40;0.00;;;;;;;2.81;64.65;101241.41;4968353;28;20050;-70
2023/04/28 02:59:28;;;;;;;0.10;0.10;;;;;;;2.80;64.25;101247.41;4963329;28;20075;-70
2023/04/28 03:01:55;;;;;;;0.00;0.00;;;;;;;2.78;64.18;101251.66;4970156;28;20050;-70
2023/04/28 03:04:22;;;;;;;0.10;0.00;;;;;;;2.76;64.14;101249.88;4966222;28;20458;-70
2023/04/28 03:06:48;;;;;;;0.20;0.05;;;;;;;2.74;64.25;101247.28;4965472;28;20062;-70
2023/04/28 03:09:17;;;;;;;0.30;0.00;;;;;;;2.73;64.16;101250.69;4967206;28;20053;-70
2023/04/28 03:11:43;;;;;;;0.10;0.10;;;;;;;2.72;64.42;101248.94;4951088;28;20526;-71
2023/04/28 03:14:10;;;;;;;0.00;0.00;;;;;;;2.70;64.01;101248.03;4967019;28;20054;-70
2023/04/28 03:16:38;;;;;;;1.85;0.00;;;;;;;2.70;64.31;101245.47;4967427;28;20054;-70
2023/04/28 03:19:05;;;;;;;0.05;0.05;;;;;;;2.68;64.40;101249.75;4968045;28;20042;-70
2023/04/28 03:21:32;;;;;;;0.00;0.00;;;;;;;2.67;64.82;101255.72;4968439;28;20046;-70
2023/04/28 03:23:59;;;;;;;1.65;0.10;;;;;;;2.66;64.92;101257.44;4970111;28;20477;-70
2023/04/28 03:26:27;;;;;;;0.70;0.30;;;;;;;2.65;65.30;101258.28;4965309;28;20065;-70
2023/04/28 03:28:55;;;;;;;0.10;0.10;;;;;;;2.67;65.24;101263.47;4965496;28;20054;-70
2023/04/28 03:31:23;;;;;;;1.45;0.10;;;;;;;2.66;65.14;101256.56;4965242;28;20058;-70
2023/04/28 03:33:49;;;;;;;2.65;0.10;;;;;;;2.66;64.61;101259.16;4968544;28;20046;-70
2023/04/28 03:36:16;;;;;;;2.92;0.00;;;;;;;2.66;64.96;101260.00;4964850;28;20043;-70
2023/04/28 03:38:43;;;;;;;0.00;0.00;;;;;;;2.67;64.71;101260.88;4966576;28;20058;-70
2023/04/28 03:41:10;;;;;;;0.60;0.10;;;;;;;2.67;64.85;101260.88;4965452;28;20062;-69
2023/04/28 03:43:38;;;;;;;0.20;0.10;;;;;;;2.67;65.08;101258.28;4968682;28;20062;-70
2023/04/28 03:46:05;;;;;;;0.85;0.05;;;;;;;2.68;65.12;101262.63;4966410;28;20053;-70
2023/04/28 03:48:32;;;;;;;6.20;0.65;;;;;;;2.68;65.67;101265.22;4967538;28;20047;-70
2023/04/28 03:50:59;;;;;;;1.02;0.10;;;;;;;2.68;65.80;101258.34;4968026;28;20426;-70
2023/04/28 03:53:26;;;;;;;0.03;0.03;;;;;;;2.70;65.23;101258.34;4969762;28;20077;-70
2023/04/28 03:55:52;;;;;;;2.65;0.10;;;;;;;2.71;65.88;101265.28;4964068;28;20051;-70
2023/04/28 03:58:19;;;;;;;0.08;0.00;;;;;;;2.73;65.20;101266.16;4967640;28;20491;-70
2023/04/28 04:00:47;;;;;;;0.10;0.10;;;;;;;2.73;65.40;101266.16;4965115;28;20431;-70
2023/04/28 04:03:14;;;;;;;0.10;0.10;;;;;;;2.75;65.36;101269.66;4963996;28;20047;-70
2023/04/28 04:05:41;;;;;;;0.10;0.10;;;;;;;2.76;66.26;101273.09;4965805;28;20133;-70
2023/04/28 04:08:08;;;;;;;2.53;0.10;;;;;;;2.79;65.94;101279.22;4968967;28;20046;-70
2023/04/28 04:10:35;;;;;;;0.10;0.10;;;;;;;2.80;65.69;101283.53;4965048;28;20840;-70
2023/04/28 04:13:02;;;;;;;2.80;0.30;;;;;;;2.82;65.71;101281.88;4968312;28;20410;-71
2023/04/28 04:15:29;;;;;;;0.40;0.10;;;;;;;2.85;65.93;101281.94;4964813;28;20054;-70
2023/04/28 04:17:57;;;;;;;0.25;0.10;;;;;;;2.88;66.70;101275.97;4967896;28;20051;-70
2023/04/28 04:20:24;;;;;;;3.30;0.10;;;;;;;2.90;66.00;101279.41;4966293;28;20095;-70
2023/04/28 04:22:51;;;;;;;0.28;0.10;;;;;;;2.95;65.96;101279.53;4965100;28;20752;-70
2023/04/28 04:25:18;;;;;;;0.10;0.10;;;;;;;2.97;66.21;101277.84;4965906;28;20055;-70
2023/04/28 04:27:45;;;;;;;0.03;0.00;;;;;;;3.00;66.06;101283.94;4966093;28;20078;-69
2023/04/28 04:30:12;;;;;;;0.10;0.10;;;;;;;3.02;66.74;101284.84;4966433;28;20054;-70
2023/04/28 04:32:39;;;;;;;2.55;0.10;;;;;;;3.07;66.48;101292.69;4964772;28;20105;-70
2023/04/28 04:35:08;;;;;;;1.77;0.10;;;;;;;3.10;67.13;101287.56;4964939;28;20411;-70
2023/04/28 04:37:35;;;;;;;0.68;0.10;;;;;;;3.15;66.96;101291.13;4963677;28;20043;-70
2023/04/28 04:40:02;;;;;;;0.10;0.10;;;;;;;3.18;66.65;101285.16;4964002;28;20046;-70
2023/04/28 04:42:29;;;;;;;0.68;0.20;;;;;;;3.23;67.04;101299.91;4963595;28;20055;-71
2023/04/28 04:44:56;;;;;;;0.52;0.20;;;;;;;3.28;66.51;101298.28;4959750;28;20554;-70
2023/04/28 04:47:22;;;;;;;0.20;0.10;;;;;;;3.33;67.28;101286.34;4967073;28;20054;-70
2023/04/28 04:49:49;;;;;;;6.32;0.10;;;;;;;3.36;67.12;101285.53;4965159;28;20051;-70
2023/04/28 04:52:18;;;;;;;0.10;0.10;;;;;;;3.43;67.38;101291.69;4966309;28;20050;-70
2023/04/28 04:54:45;;;;;;;0.10;0.03;;;;;;;3.47;67.30;101289.19;4961652;28;20514;-72
2023/04/28 04:57:13;;;;;;;1.25;0.10;;;;;;;3.52;67.59;101287.53;4966262;28;20047;-73
2023/04/28 04:59:39;;;;;;;0.45;0.10;;;;;;;3.58;67.16;101291.94;4965674;28;20050;-72
2023/04/28 05:02:06;;;;;;;0.30;0.10;;;;;;;3.63;67.55;101292.91;4969061;28;20063;-72
2023/04/28 05:04:33;;;;;;;0.22;0.20;;;;;;;3.69;67.44;101292.16;4970363;28;20054;-70
2023/04/28 05:07:00;;;;;;;0.17;0.10;;;;;;;3.74;66.79;101299.13;4974421;28;20054;-70
2023/04/28 05:09:29;;;;;;;0.40;0.10;;;;;;;3.79;67.44;101300.09;4983610;28;20050;-70
2023/04/28 05:11:56;;;;;;;0.20;0.10;;;;;;;3.85;67.38;101301.91;4936457;28;20125;-70
2023/04/28 05:14:23;;;;;;;0.20;0.10;;;;;;;3.90;67.17;101299.41;4964237;28;20498;-70
2023/04/28 05:16:50;;;;;;;0.10;0.10;;;;;;;3.93;66.93;101300.34;4957401;28;20054;-70
2023/04/28 05:19:17;;;;;;;1.55;0.10;;;;;;;4.00;67.49;101306.47;4961360;28;20051;-70
2023/04/28 05:21:46;;;;;;;0.20;0.10;;;;;;;4.03;67.29;101301.34;4964274;28;20738;-70
2023/04/28 05:24:13;;;;;;;0.30;0.17;;;;;;;4.09;67.42;101300.59;4966564;28;20066;-70
2023/04/28 05:26:41;;;;;;;0.30;0.20;;;;;;;4.14;67.02;101298.94;4967139;28;20086;-70
2023/04/28 05:29:08;;;;;;;3.10;0.00;;;;;;;4.18;67.05;101306.75;4969457;28;20043;-73
2023/04/28 05:31:35;;;;;;;0.17;0.10;;;;;;;4.23;67.45;101302.53;4969011;28;20051;-72
2023/04/28 05:34:01;;;;;;;0.38;0.10;;;;;;;4.29;67.53;101307.81;4971250;28;20046;-70
2023/04/28 05:36:28;;;;;;;0.10;0.10;;;;;;;4.35;67.09;101303.59;4968639;28;20042;-69
2023/04/28 05:38:55;;;;;;;0.20;0.10;;;;;;;4.40;67.21;101307.13;4969885;28;20720;-71
2023/04/28 05:41:22;;;;;;;4.93;0.10;;;;;;;4.45;67.21;101308.94;4970431;28;20101;-70
2023/04/28 05:43:50;;;;;;;0.22;0.10;;;;;;;4.50;67.25;101301.25;4967782;28;20046;-70
2023/04/28 05:46:18;;;;;;;2.38;0.10;;;;;;;4.56;67.03;101309.09;4971395;28;20145;-70
2023/04/28 05:48:45;;;;;;;1.20;0.10;;;;;;;4.59;67.22;101308.28;4970863;28;20046;-70
2023/04/28 05:51:12;;;;;;;1.65;0.10;;;;;;;4.64;67.16;101309.19;4967074;28;20042;-70
2023/04/28 05:53:39;;;;;;;1.67;0.20;;;;;;;4.69;66.97;101305.81;4968536;28;20051;-70
2023/04/28 05:56:07;;;;;;;0.38;0.00;;;;;;;4.74;66.93;101309.34;4967388;28;20862;-69
2023/04/28 05:58:34;;;;;;;1.40;0.10;;;;;;;4.79;67.34;101311.13;4970379;28;20047;-70
2023/04/28 06:01:02;;;;;;;0.65;0.10;;;;;;;4.84;67.43;101307.78;4959059;28;21371;-70
2023/04/28 06:03:29;;;;;;;7.85;0.20;;;;;;;4.89;67.40;101307.81;4968805;28;20166;-70
2023/04/28 06:05:56;;;;;;;0.20;0.10;;;;;;;4.96;67.23;101317.41;4968226;28;20066;-70
2023/04/28 06:08:23;;;;;;;0.73;0.10;;;;;;;4.99;67.38;101314.88;4970496;28;20066;-71
2023/04/28 06:10:49;;;;;;;1.23;0.13;;;;;;;5.05;67.15;101319.25;4966442;28;20047;-71
2023/04/28 06:13:16;;;;;;;1.75;0.10;;;;;;;5.10;67.08;101322.78;4967576;28;20061;-71
2023/04/28 06:15:43;;;;;;;0.55;0.10;;;;;;;5.15;66.98;101327.16;4964327;28;20057;-71
2023/04/28 06:18:11;;;;;;;1.70;0.17;;;;;;;5.20;67.15;101324.63;4953957;28;20053;-71
2023/04/28 06:20:38;;;;;;;0.10;0.08;;;;;;;5.25;67.01;101327.28;4961088;28;20043;-70
2023/04/28 06:23:05;;;;;;;1.98;0.10;;;;;;;5.30;67.09;101326.47;4960420;28;20054;-71
2023/04/28 06:25:32;;;;;;;0.13;0.10;;;;;;;5.35;67.05;101330.00;4959177;28;20077;-71
2023/04/28 06:27:59;;;;;;;0.22;0.10;;;;;;;5.43;67.12;101342.16;4965250;28;20046;-71
2023/04/28 06:30:26;;;;;;;0.38;0.10;;;;;;;5.48;66.92;101330.13;4962946;28;20659;-71
2023/04/28 06:32:53;;;;;;;0.17;0.10;;;;;;;5.54;66.86;101340.56;4964996;28;20058;-71
2023/04/28 06:35:22;;;;;;;1.50;0.10;;;;;;;5.57;66.50;101346.63;4966848;28;20042;-71
2023/04/28 06:37:49;;;;;;;0.00;0.00;;;;;;;5.61;66.54;101353.59;4965104;28;20059;-71
2023/04/28 06:40:16;;;;;;;1.95;0.10;;;;;;;5.66;66.42;101356.22;4966999;28;20065;-71
2023/04/28 06:42:43;;;;;;;0.03;0.03;;;;;;;5.72;66.30;101350.25;4965742;28;20431;-72
2023/04/28 06:45:10;;;;;;;1.65;0.30;;;;;;;5.77;66.21;101353.75;4964531;28;20059;-71
2023/04/28 06:47:39;;;;;;;0.13;0.10;;;;;;;5.81;66.24;101355.56;4965975;28;20047;-71
2023/04/28 06:50:07;;;;;;;0.73;0.10;;;;;;;5.86;66.27;101369.41;4965496;28;20051;-71
2023/04/28 06:52:35;;;;;;;0.47;0.10;;;;;;;5.91;66.47;101365.16;4965802;28;20039;-71
2023/04/28 06:55:02;;;;;;;0.00;0.00;;;;;;;5.96;66.17;101360.06;4966023;28;20098;-71
2023/04/28 06:57:29;;;;;;;0.50;0.10;;;;;;;5.99;66.20;101360.94;4965046;28;20045;-71
2023/04/28 06:59:56;;;;;;;0.10;0.10;;;;;;;6.05;66.08;101365.31;4963612;28;20784;-70
2023/04/28 07:02:23;;;;;;;0.65;0.00;;;;;;;6.10;65.87;101363.66;4965144;28;20054;-71
2023/04/28 07:04:50;;;;;;;6.22;0.10;;;;;;;6.15;66.04;101355.88;4966945;28;20050;-71
2023/04/28 07:07:16;;;;;;;8.50;0.10;;;;;;;6.21;65.79;101361.16;4965523;28;20074;-71
2023/04/28 07:09:45;;;;;;;0.20;0.10;;;;;;;6.27;65.59;101363.78;4967232;28;20496;-71
2023/04/28 07:12:12;;;;;;;0.52;0.10;;;;;;;6.33;65.64;101369.03;4925060;28;1217367;-71
2023/04/28 07:14:39;;;;;;;0.20;0.08;;;;;;;6.37;65.88;101357.81;4966378;28;20305;-71
2023/04/28 07:17:05;;;;;;;4.15;0.10;;;;;;;6.45;65.91;101361.34;4964687;28;20057;-71
2023/04/28 07:19:32;;;;;;;0.17;0.08;;;;;;;6.51;65.85;101361.38;4967409;28;20053;-70
2023/04/28 07:21:59;;;;;;;0.22;0.10;;;;;;;6.58;65.59;101362.31;4963224;28;20053;-71
2023/04/28 07:24:27;;;;;;;5.55;0.20;;;;;;;6.66;65.15;101364.94;4966805;28;20061;-71
2023/04/28 07:26:55;;;;;;;0.30;0.10;;;;;;;6.74;65.68;101377.16;4965037;28;20542;-71
2023/04/28 07:29:22;;;;;;;0.30;0.00;;;;;;;6.81;65.26;101372.84;4968734;28;20128;-71
2023/04/28 07:31:49;;;;;;;0.35;0.10;;;;;;;6.88;65.56;101371.16;4962987;28;20058;-71
2023/04/28 07:34:16;;;;;;;0.20;0.10;;;;;;;6.95;65.30;101378.16;4968562;28;20049;-71
2023/04/28 07:36:43;;;;;;;9.95;0.30;;;;;;;7.03;64.80;101380.75;4963255;28;20051;-71
2023/04/28 07:39:10;;;;;;;0.20;0.10;;;;;;;7.09;64.90;101378.22;4965412;28;20051;-71
2023/04/28 07:41:38;;;;;;;0.60;0.10;;;;;;;7.16;64.04;101379.97;4963898;28;20047;-70
2023/04/28 07:44:07;;;;;;;1.50;0.10;;;;;;;7.21;64.42;101391.28;4967530;28;20113;-71
2023/04/28 07:46:34;;;;;;;0.22;0.10;;;;;;;7.28;64.50;101392.16;4962692;28;20051;-71
2023/04/28 07:49:01;;;;;;;0.77;0.10;;;;;;;7.35;64.55;101402.59;4969053;28;20506;-75
2023/04/28 07:51:28;;;;;;;0.73;0.10;;;;;;;7.41;64.20;101402.63;4963851;28;20043;-72
2023/04/28 07:53:55;;;;;;;0.10;0.10;;;;;;;7.50;63.74;101403.53;4966729;28;20050;-74
2023/04/28 07:56:22;;;;;;;5.88;0.50;;;;;;;7.54;63.46;101403.56;4965192;28;20051;-72
2023/04/28 07:58:49;;;;;;;2.28;0.08;;;;;;;7.62;63.51;101406.19;4964903;28;20054;-72
2023/04/28 08:01:18;;;;;;;1.75;0.10;;;;;;;7.69;62.96;101414.91;4966840;28;20062;-73
2023/04/28 08:03:45;;;;;;;1.27;0.10;;;;;;;7.75;62.93;101412.31;4964740;28;20047;-73
2023/04/28 08:06:12;;;;;;;0.20;0.10;;;;;;;7.80;62.86;101408.84;4966567;28;20047;-73
2023/04/28 08:08:39;;;;;;;1.38;0.10;;;;;;;7.89;62.84;101415.81;4966529;28;20050;-76
2023/04/28 08:11:07;;;;;;;0.20;0.08;;;;;;;7.97;62.68;101416.72;4963454;28;20059;-73
2023/04/28 08:13:34;;;;;;;0.40;0.10;;;;;;;8.05;62.58;101407.19;4962479;28;20050;-74
2023/04/28 08:16:00;;;;;;;0.13;0.10;;;;;;;8.13;63.12;101411.53;4967257;28;20624;-73
2023/04/28 08:18:29;;;;;;;0.10;0.10;;;;;;;8.22;62.57;101414.13;4966760;28;20388;-73
2023/04/28 08:20:56;;;;;;;1.33;0.10;;;;;;;8.30;62.75;101418.47;4966173;28;20046;-74
2023/04/28 08:23:27;;;;;;;0.35;0.10;;;;;;;8.39;62.34;101419.41;4962786;28;20046;-72
2023/04/28 08:25:54;;;;;;;0.10;0.10;;;;;;;8.45;61.56;101424.59;4966353;28;20559;-73
2023/04/28 08:28:21;;;;;;;4.05;0.15;;;;;;;8.52;61.84;101421.16;4964971;28;20119;-74
2023/04/28 08:30:47;;;;;;;0.10;0.10;;;;;;;8.59;61.86;101420.28;4965355;28;20046;-74
2023/04/28 08:33:14;;;;;;;3.90;0.10;;;;;;;8.65;62.03;101427.22;4960705;28;20050;-73
2023/04/28 08:35:43;;;;;;;1.83;0.10;;;;;;;8.73;60.83;101423.75;4966971;28;20046;-73
2023/04/28 08:38:12;;;;;;;0.20;0.20;;;;;;;8.77;61.39;101425.50;4960734;28;20046;-72
2023/04/28 08:40:41;;;;;;;0.10;0.10;;;;;;;8.80;60.87;101434.19;4965262;28;20054;-72
2023/04/28 08:43:09;;;;;;;0.95;0.52;;;;;;;8.87;60.57;101436.75;4966142;28;20110;-72
2023/04/28 08:45:43;;;;;;;1.83;0.50;;;;;;;8.93;60.51;101430.69;4967335;28;20047;-72
2023/04/28 08:48:18;;;;;;;1.55;0.08;;;;;;;8.98;59.93;101431.53;4965736;28;20047;-72
2023/04/28 08:50:51;;;;;;;0.10;0.10;;;;;;;9.03;60.41;101442.84;4963514;28;20566;-70
2023/04/28 08:53:23;;;;;;;0.25;0.10;;;;;;;9.08;59.85;101445.41;4965223;28;20051;-73
2023/04/28 08:55:55;;;;;;;1.75;0.10;;;;;;;9.09;59.69;101450.63;4964622;28;20063;-72
2023/04/28 08:58:23;;;;;;;2.05;0.10;;;;;;;9.09;59.31;101450.63;4967665;28;20476;-71
2023/04/28 09:00:51;;;;;;;0.10;0.10;;;;;;;9.09;59.78;101463.69;4960631;28;20129;-71
2023/04/28 09:03:18;;;;;;;2.28;0.10;;;;;;;9.08;59.51;101461.94;4964012;28;20510;-75
2023/04/28 09:05:44;;;;;;;0.13;0.10;;;;;;;9.08;59.10;101459.34;4964077;28;20818;-71
2023/04/28 09:08:13;;;;;;;1.00;0.10;;;;;;;9.08;59.44;101461.94;4965777;28;20051;-74
2023/04/28 09:10:40;;;;;;;0.10;0.10;;;;;;;9.09;59.13;101463.69;4961938;28;20062;-75
2023/04/28 09:13:07;;;;;;;0.20;0.10;;;;;;;9.10;59.00;101467.13;4965651;28;20057;-72
2023/04/28 09:15:36;;;;;;;0.10;0.10;;;;;;;9.11;59.05;101459.34;4961898;28;20790;-72
2023/04/28 09:18:03;;;;;;;0.20;0.10;;;;;;;9.12;58.84;101462.81;4966644;28;20046;-72
2023/04/28 09:20:32;;;;;;;2.53;0.17;;;;;;;9.13;58.20;101462.78;4963799;28;20047;-72
2023/04/28 09:23:16;;;;;;;0.10;0.10;;;;;;;9.17;58.42;101459.31;4963247;28;20051;-72
2023/04/28 09:25:56;;;;;;;1.02;0.10;;;;;;;9.21;58.76;101461.03;4965236;28;20061;-72
2023/04/28 09:28:23;;;;;;;0.20;0.20;;;;;;;9.24;58.83;101466.25;4962498;28;20757;-72
2023/04/28 09:30:50;;;;;;;0.20;0.20;;;;;;;9.28;57.96;101464.53;4964736;28;20497;-72
2023/04/28 09:33:17;;;;;;;1.98;0.10;;;;;;;9.30;58.44;101459.28;4938081;28;20686;-73
2023/04/28 09:35:46;;;;;;;0.22;0.20;;;;;;;9.34;58.09;101466.25;4964113;28;20483;-73
2023/04/28 09:38:14;;;;;;;0.15;0.10;;;;;;;9.37;58.31;101466.25;4962163;28;20050;-72
2023/04/28 09:40:52;;;;;;;0.98;0.10;;;;;;;9.41;58.31;101462.75;4964277;28;20569;-73
2023/04/28 09:43:27;;;;;;;0.47;0.10;;;;;;;9.43;58.10;101461.88;4963665;28;20059;-75
2023/04/28 09:45:54;;;;;;;0.70;0.20;;;;;;;9.48;57.78;101458.34;4962023;28;20146;-73
2023/04/28 09:48:32;;;;;;;0.30;0.20;;;;;;;9.50;57.88;101462.69;4964077;28;20495;-74
2023/04/28 09:51:00;;;;;;;0.10;0.10;;;;;;;9.54;57.46;101459.22;4962188;28;20043;-74
2023/04/28 09:53:29;;;;;;;0.10;0.03;;;;;;;9.57;56.51;101459.22;4964603;28;20957;-73
2023/04/28 09:55:58;;;;;;;0.20;0.10;;;;;;;9.58;56.09;101460.09;4964075;28;20061;-74
2023/04/28 09:58:27;;;;;;;0.10;0.00;;;;;;;9.60;56.31;101463.56;4967112;28;20392;-74
2023/04/28 10:00:55;;;;;;;1.23;0.05;;;;;;;9.62;56.60;101449.66;4958767;28;20042;-73
2023/04/28 10:03:24;;;;;;;0.10;0.10;;;;;;;9.69;56.66;101459.16;4964363;28;20051;-73
2023/04/28 10:05:52;;;;;;;0.50;0.10;;;;;;;9.76;56.29;101461.75;4963094;28;20043;-73
2023/04/28 10:08:20;;;;;;;0.13;0.10;;;;;;;9.79;55.70;101453.91;4965046;28;20054;-73
2023/04/28 10:10:51;;;;;;;0.10;0.10;;;;;;;9.81;55.66;101457.38;4965199;28;20051;-73
2023/04/28 10:13:19;;;;;;;0.10;0.10;;;;;;;9.82;55.53;101456.53;4967605;28;20057;-73
2023/04/28 10:15:46;;;;;;;0.65;0.15;;;;;;;9.83;55.89;101458.25;4966984;28;20050;-73
2023/04/28 10:18:14;;;;;;;0.30;0.10;;;;;;;9.86;55.67;101461.69;4965947;28;20047;-73
2023/04/28 10:20:44;;;;;;;0.10;0.10;;;;;;;9.89;55.19;101463.44;4967931;28;20054;-72
2023/04/28 10:23:41;;;;;;;0.90;0.10;;;;;;;9.91;55.40;101461.69;4966758;28;20061;-73
2023/04/28 10:26:12;;;;;;;0.20;0.10;;;;;;;9.90;54.62;101457.31;4938987;28;20684;-73
2023/04/28 10:28:46;;;;;;;0.17;0.17;;;;;;;9.96;54.42;101457.31;4961451;28;20063;-73
2023/04/28 10:31:14;;;;;;;0.10;0.10;;;;;;;9.98;54.58;101466.00;4967621;28;20047;-73
2023/04/28 10:33:42;;;;;;;0.13;0.00;;;;;;;10.00;54.26;101464.25;4967295;28;21026;-73
2023/04/28 10:36:09;;;;;;;0.25;0.10;;;;;;;10.01;54.32;101460.75;4961886;28;20063;-73
2023/04/28 10:39:01;;;;;;;2.15;0.10;;;;;;;10.03;54.43;101469.47;4963560;28;20082;-73
2023/04/28 10:41:33;;;;;;;0.10;0.10;;;;;;;10.07;53.86;101465.94;4963727;28;20709;-73
2023/04/28 10:44:00;;;;;;;0.05;0.05;;;;;;;10.09;53.46;101474.63;4968130;28;20492;-73
2023/04/28 10:46:26;;;;;;;1.95;0.30;;;;;;;10.13;52.61;101465.94;4966627;28;20054;-73
2023/04/28 10:48:55;;;;;;;0.50;0.10;;;;;;;10.14;53.72;101462.44;4965578;28;20051;-72
2023/04/28 10:51:32;;;;;;;0.52;0.10;;;;;;;10.18;53.96;101462.41;4967202;28;20072;-73
2023/04/28 10:54:16;;;;;;;0.10;0.10;;;;;;;10.22;53.36;101465.00;4964412;28;20051;-72
2023/04/28 10:57:17;;;;;;;0.10;0.10;;;;;;;10.24;53.76;101472.81;4967522;28;20483;-73
2023/04/28 10:59:46;;;;;;;1.75;0.10;;;;;;;10.22;53.34;101470.22;4963897;28;20085;-73
2023/04/28 11:02:49;;;;;;;1.10;0.10;;;;;;;10.26;53.61;101471.06;4966515;28;20475;-73
2023/04/28 11:05:19;;;;;;;1.85;0.10;;;;;;;10.27;53.05;101467.59;4967525;28;20050;-73
2023/04/28 11:08:29;;;;;;;0.30;0.10;;;;;;;10.29;53.60;101461.50;4965590;28;20051;-74
2023/04/28 11:11:19;;;;;;;4.50;0.10;;;;;;;10.29;53.11;101465.88;4964182;28;20070;-74
2023/04/28 11:13:47;;;;;;;0.50;0.05;;;;;;;10.29;52.48;101466.72;4965792;28;20117;-74
2023/04/28 11:16:20;;;;;;;0.85;0.10;;;;;;;10.29;52.57;101465.88;4967202;28;20145;-77
2023/04/28 11:19:04;;;;;;;1.15;0.08;;;;;;;10.31;52.44;101469.34;4966612;28;20050;-75
2023/04/28 11:21:32;;;;;;;0.00;0.00;;;;;;;10.34;51.73;101469.31;4967142;28;21383;-74
2023/04/28 11:23:59;;;;;;;2.92;0.10;;;;;;;10.36;51.85;101478.03;4966219;28;20536;-75
2023/04/28 11:26:27;;;;;;;0.60;0.10;;;;;;;10.37;51.50;101478.88;4969723;28;20043;-77
2023/04/28 11:28:56;;;;;;;0.35;0.05;;;;;;;10.37;50.97;101474.53;4966467;28;20050;-77
2023/04/28 11:31:26;;;;;;;1.75;0.00;;;;;;;10.37;51.07;101474.53;4966629;28;20046;-74
2023/04/28 11:34:13;;;;;;;1.38;0.35;;;;;;;10.38;51.02;101475.38;4969760;28;20133;-82
2023/04/28 11:36:41;;;;;;;0.05;0.05;;;;;;;10.38;50.79;101472.78;4969236;28;20057;-74